sensor_id;sensor_type;location;lat;lon;timestamp;pressure;altitude;pressure_sealevel;temperature;humidity
11036;BME280;5571;48.110;-1.706;2022-09-09T00:00:53;100713.84;;;16.72;100.00
11036;BME280;5571;48.110;-1.706;2022-09-09T00:03:25;100715.75;;;16.70;100.00
11036;BME280;5571;48.110;-1.706;2022-09-09T00:06:05;100711.28;;;16.71;100.00
11036;BME280;5571;48.110;-1.706;2022-09-09T00:11:48;100713.34;;;16.67;100.00
11036;BME280;5571;48.110;-1.706;2022-09-09T00:17:53;100713.59;;;16.64;100.00
11036;BME280;5571;48.110;-1.706;2022-09-09T00:20:09;100704.66;;;16.65;100.00
11036;BME280;5571;48.110;-1.706;2022-09-09T00:25:38;100710.09;;;16.64;100.00
11036;BME280;5571;48.110;-1.706;2022-09-09T00:28:20;100708.25;;;16.53;100.00
11036;BME280;5571;48.110;-1.706;2022-09-09T00:30:47;100703.91;;;16.52;100.00
11036;BME280;5571;48.110;-1.706;2022-09-09T00:33:15;100697.06;;;16.49;100.00
11036;BME280;5571;48.110;-1.706;2022-09-09T00:35:45;100703.69;;;16.55;100.00
11036;BME280;5571;48.110;-1.706;2022-09-09T00:38:19;100701.75;;;16.57;100.00
11036;BME280;5571;48.110;-1.706;2022-09-09T00:41:09;100695.59;;;16.56;100.00
11036;BME280;5571;48.110;-1.706;2022-09-09T00:43:38;100704.66;;;16.54;100.00
11036;BME280;5571;48.110;-1.706;2022-09-09T00:51:31;100697.53;;;16.54;100.00
11036;BME280;5571;48.110;-1.706;2022-09-09T00:54:17;100701.66;;;16.59;100.00
11036;BME280;5571;48.110;-1.706;2022-09-09T00:57:22;100705.50;;;16.54;100.00
11036;BME280;5571;48.110;-1.706;2022-09-09T00:59:52;100699.59;;;16.51;100.00
11036;BME280;5571;48.110;-1.706;2022-09-09T01:03:13;100689.09;;;16.49;100.00
11036;BME280;5571;48.110;-1.706;2022-09-09T01:08:02;100691.38;;;16.43;100.00
11036;BME280;5571;48.110;-1.706;2022-09-09T01:10:43;100694.66;;;16.46;100.00
11036;BME280;5571;48.110;-1.706;2022-09-09T01:13:22;100687.53;;;16.47;100.00
11036;BME280;5571;48.110;-1.706;2022-09-09T01:15:49;100686.06;;;16.43;100.00
11036;BME280;5571;48.110;-1.706;2022-09-09T01:18:17;100682.47;;;16.44;100.00
11036;BME280;5571;48.110;-1.706;2022-09-09T01:23:38;100685.47;;;16.39;100.00
11036;BME280;5571;48.110;-1.706;2022-09-09T01:26:17;100685.47;;;16.39;100.00
11036;BME280;5571;48.110;-1.706;2022-09-09T01:28:47;100685.47;;;16.39;100.00
11036;BME280;5571;48.110;-1.706;2022-09-09T01:31:17;100694.16;;;16.41;100.00
11036;BME280;5571;48.110;-1.706;2022-09-09T01:33:42;100691.38;;;16.43;100.00
11036;BME280;5571;48.110;-1.706;2022-09-09T01:36:14;100691.25;;;16.44;100.00
11036;BME280;5571;48.110;-1.706;2022-09-09T01:38:43;100690.41;;;16.44;100.00
11036;BME280;5571;48.110;-1.706;2022-09-09T01:41:08;100691.16;;;16.46;100.00
11036;BME280;5571;48.110;-1.706;2022-09-09T01:43:33;100685.84;;;16.46;100.00
11036;BME280;5571;48.110;-1.706;2022-09-09T01:46:00;100687.28;;;16.50;100.00
11036;BME280;5571;48.110;-1.706;2022-09-09T01:48:27;100684.63;;;16.50;100.00
11036;BME280;5571;48.110;-1.706;2022-09-09T01:50:53;100690.31;;;16.45;100.00
11036;BME280;5571;48.110;-1.706;2022-09-09T01:53:19;100686.31;;;16.40;100.00
11036;BME280;5571;48.110;-1.706;2022-09-09T01:56:04;100687.41;;;16.37;100.00
11036;BME280;5571;48.110;-1.706;2022-09-09T02:02:06;100703.09;;;16.29;100.00
11036;BME280;5571;48.110;-1.706;2022-09-09T02:04:38;100694.75;;;16.23;100.00
11036;BME280;5571;48.110;-1.706;2022-09-09T02:07:11;100699.81;;;16.26;100.00
11036;BME280;5571;48.110;-1.706;2022-09-09T02:09:42;100695.34;;;16.26;100.00
11036;BME280;5571;48.110;-1.706;2022-09-09T02:12:16;100700.56;;;16.28;100.00
11036;BME280;5571;48.110;-1.706;2022-09-09T02:14:52;100702.94;;;16.31;100.00
11036;BME280;5571;48.110;-1.706;2022-09-09T02:17:28;100699.22;;;16.33;100.00
11036;BME280;5571;48.110;-1.706;2022-09-09T02:20:07;100703.44;;;16.36;100.00
11036;BME280;5571;48.110;-1.706;2022-09-09T02:22:34;100710.53;;;16.35;100.00
11036;BME280;5571;48.110;-1.706;2022-09-09T02:25:03;100707.66;;;16.38;100.00
11036;BME280;5571;48.110;-1.706;2022-09-09T02:27:30;100708.63;;;16.37;100.00
11036;BME280;5571;48.110;-1.706;2022-09-09T02:29:57;100710.19;;;16.40;100.00
11036;BME280;5571;48.110;-1.706;2022-09-09T02:32:28;100707.19;;;16.44;100.00
11036;BME280;5571;48.110;-1.706;2022-09-09T02:34:59;100702.59;;;16.46;100.00
11036;BME280;5571;48.110;-1.706;2022-09-09T02:37:32;100699.31;;;16.43;100.00
11036;BME280;5571;48.110;-1.706;2022-09-09T02:39:58;100704.28;;;16.47;100.00
11036;BME280;5571;48.110;-1.706;2022-09-09T02:42:24;100704.75;;;16.52;100.00
11036;BME280;5571;48.110;-1.706;2022-09-09T02:44:49;100705.97;;;16.48;100.00
11036;BME280;5571;48.110;-1.706;2022-09-09T02:52:30;100699.81;;;16.48;100.00
11036;BME280;5571;48.110;-1.706;2022-09-09T02:55:06;100712.59;;;16.54;100.00
11036;BME280;5571;48.110;-1.706;2022-09-09T02:57:34;100710.91;;;16.53;100.00
11036;BME280;5571;48.110;-1.706;2022-09-09T03:00:00;100715.25;;;16.54;100.00
11036;BME280;5571;48.110;-1.706;2022-09-09T03:02:26;100723.31;;;16.52;100.00
11036;BME280;5571;48.110;-1.706;2022-09-09T03:04:52;100707.41;;;16.52;100.00
11036;BME280;5571;48.110;-1.706;2022-09-09T03:07:21;100716.09;;;16.54;100.00
11036;BME280;5571;48.110;-1.706;2022-09-09T03:09:46;100712.59;;;16.54;100.00
11036;BME280;5571;48.110;-1.706;2022-09-09T03:12:12;100720.66;;;16.52;100.00
11036;BME280;5571;48.110;-1.706;2022-09-09T03:14:38;100709.94;;;16.54;100.00
11036;BME280;5571;48.110;-1.706;2022-09-09T03:17:04;100721.31;;;16.56;100.00
11036;BME280;5571;48.110;-1.706;2022-09-09T03:19:30;100722.13;;;16.56;100.00
11036;BME280;5571;48.110;-1.706;2022-09-09T03:21:57;100718.88;;;16.53;100.00
11036;BME280;5571;48.110;-1.706;2022-09-09T03:24:22;100720.06;;;16.49;100.00
11036;BME280;5571;48.110;-1.706;2022-09-09T03:26:48;100713.34;;;16.56;100.00
11036;BME280;5571;48.110;-1.706;2022-09-09T03:29:13;100719.59;;;16.55;100.00
11036;BME280;5571;48.110;-1.706;2022-09-09T03:31:40;100711.75;;;16.53;100.00
11036;BME280;5571;48.110;-1.706;2022-09-09T03:34:05;100717.81;;;16.55;100.00
11036;BME280;5571;48.110;-1.706;2022-09-09T03:36:31;100722.13;;;16.56;100.00
11036;BME280;5571;48.110;-1.706;2022-09-09T03:38:56;100724.78;;;16.56;100.00
11036;BME280;5571;48.110;-1.706;2022-09-09T03:41:23;100725.75;;;16.55;100.00
11036;BME280;5571;48.110;-1.706;2022-09-09T03:43:50;100727.56;;;16.55;100.00
11036;BME280;5571;48.110;-1.706;2022-09-09T03:46:16;100728.53;;;16.54;100.00
11036;BME280;5571;48.110;-1.706;2022-09-09T03:48:41;100733.94;;;16.52;100.00
11036;BME280;5571;48.110;-1.706;2022-09-09T03:51:07;100738.53;;;16.50;100.00
11036;BME280;5571;48.110;-1.706;2022-09-09T03:53:32;100739.50;;;16.49;100.00
11036;BME280;5571;48.110;-1.706;2022-09-09T03:55:59;100730.34;;;16.42;100.00
11036;BME280;5571;48.110;-1.706;2022-09-09T03:58:26;100742.63;;;16.43;100.00
11036;BME280;5571;48.110;-1.706;2022-09-09T04:01:01;100740.81;;;16.44;100.00
11036;BME280;5571;48.110;-1.706;2022-09-09T04:03:27;100735.41;;;16.45;100.00
11036;BME280;5571;48.110;-1.706;2022-09-09T04:05:54;100746.00;;;16.45;100.00
11036;BME280;5571;48.110;-1.706;2022-09-09T04:08:21;100749.50;;;16.46;100.00
11036;BME280;5571;48.110;-1.706;2022-09-09T04:10:49;100745.50;;;16.40;100.00
11036;BME280;5571;48.110;-1.706;2022-09-09T04:13:16;100742.13;;;16.38;100.00
11036;BME280;5571;48.110;-1.706;2022-09-09T04:15:43;100751.28;;;16.34;100.00
11036;BME280;5571;48.110;-1.706;2022-09-09T04:18:09;100740.06;;;16.31;100.00
11036;BME280;5571;48.110;-1.706;2022-09-09T04:20:34;100737.66;;;16.28;100.00
11036;BME280;5571;48.110;-1.706;2022-09-09T04:23:00;100740.66;;;16.34;100.00
11036;BME280;5571;48.110;-1.706;2022-09-09T04:25:26;100741.78;;;16.32;100.00
11036;BME280;5571;48.110;-1.706;2022-09-09T04:27:55;100746.34;;;16.30;100.00
11036;BME280;5571;48.110;-1.706;2022-09-09T04:30:21;100747.19;;;16.30;100.00
11036;BME280;5571;48.110;-1.706;2022-09-09T04:32:46;100752.72;;;16.27;100.00
11036;BME280;5571;48.110;-1.706;2022-09-09T04:35:11;100754.53;;;16.27;100.00
11036;BME280;5571;48.110;-1.706;2022-09-09T04:37:37;100744.03;;;16.25;100.00
11036;BME280;5571;48.110;-1.706;2022-09-09T04:40:02;100752.22;;;16.22;100.00
11036;BME280;5571;48.110;-1.706;2022-09-09T04:42:28;100743.44;;;16.22;100.00
11036;BME280;5571;48.110;-1.706;2022-09-09T04:44:53;100741.63;;;16.22;100.00
11036;BME280;5571;48.110;-1.706;2022-09-09T04:47:19;100742.47;;;16.23;100.00
11036;BME280;5571;48.110;-1.706;2022-09-09T04:49:45;100745.13;;;16.23;100.00
11036;BME280;5571;48.110;-1.706;2022-09-09T04:52:10;100744.28;;;16.22;100.00
11036;BME280;5571;48.110;-1.706;2022-09-09T04:54:35;100735.25;;;16.25;100.00
11036;BME280;5571;48.110;-1.706;2022-09-09T04:57:01;100750.94;;;16.28;100.00
11036;BME280;5571;48.110;-1.706;2022-09-09T04:59:27;100752.63;;;16.29;100.00
11036;BME280;5571;48.110;-1.706;2022-09-09T05:01:52;100746.34;;;16.30;100.00
11036;BME280;5571;48.110;-1.706;2022-09-09T05:04:19;100746.47;;;16.28;100.00
11036;BME280;5571;48.110;-1.706;2022-09-09T05:06:44;100747.44;;;16.27;100.00
11036;BME280;5571;48.110;-1.706;2022-09-09T05:09:10;100750.94;;;16.28;100.00
11036;BME280;5571;48.110;-1.706;2022-09-09T05:11:36;100739.38;;;16.29;100.00
11036;BME280;5571;48.110;-1.706;2022-09-09T05:14:02;100744.66;;;16.29;100.00
11036;BME280;5571;48.110;-1.706;2022-09-09T05:16:28;100740.91;;;16.31;100.00
11036;BME280;5571;48.110;-1.706;2022-09-09T05:18:53;100741.03;;;16.30;100.00
11036;BME280;5571;48.110;-1.706;2022-09-09T05:21:22;100752.38;;;16.32;100.00
11036;BME280;5571;48.110;-1.706;2022-09-09T05:23:48;100754.44;;;16.28;100.00
11036;BME280;5571;48.110;-1.706;2022-09-09T05:26:19;100755.00;;;16.21;100.00
11036;BME280;5571;48.110;-1.706;2022-09-09T05:28:44;100757.78;;;16.19;100.00
11036;BME280;5571;48.110;-1.706;2022-09-09T05:31:11;100761.28;;;16.20;100.00
11036;BME280;5571;48.110;-1.706;2022-09-09T05:33:38;100757.78;;;16.19;100.00
11036;BME280;5571;48.110;-1.706;2022-09-09T05:36:26;100763.09;;;16.19;100.00
11036;BME280;5571;48.110;-1.706;2022-09-09T05:38:51;100759.69;;;16.17;100.00
11036;BME280;5571;48.110;-1.706;2022-09-09T05:41:19;100777.19;;;16.20;100.00
11036;BME280;5571;48.110;-1.706;2022-09-09T05:43:46;100766.94;;;16.15;100.00
11036;BME280;5571;48.110;-1.706;2022-09-09T05:46:18;100767.78;;;16.16;100.00
11036;BME280;5571;48.110;-1.706;2022-09-09T05:48:46;100773.91;;;16.16;100.00
11036;BME280;5571;48.110;-1.706;2022-09-09T05:51:14;100773.69;;;16.19;100.00
11036;BME280;5571;48.110;-1.706;2022-09-09T05:53:44;100775.59;;;16.17;100.00
11036;BME280;5571;48.110;-1.706;2022-09-09T05:56:18;100772.34;;;16.13;100.00
11036;BME280;5571;48.110;-1.706;2022-09-09T05:58:45;100767.91;;;16.14;100.00
11036;BME280;5571;48.110;-1.706;2022-09-09T06:01:15;100768.75;;;16.15;100.00
11036;BME280;5571;48.110;-1.706;2022-09-09T06:03:43;100777.66;;;16.13;100.00
11036;BME280;5571;48.110;-1.706;2022-09-09T06:06:11;100778.25;;;16.17;100.00
11036;BME280;5571;48.110;-1.706;2022-09-09T06:08:38;100777.31;;;16.18;100.00
11036;BME280;5571;48.110;-1.706;2022-09-09T06:11:07;100776.44;;;16.18;100.00
11036;BME280;5571;48.110;-1.706;2022-09-09T06:13:32;100781.66;;;16.19;100.00
11036;BME280;5571;48.110;-1.706;2022-09-09T06:15:58;100773.56;;;16.21;100.00
11036;BME280;5571;48.110;-1.706;2022-09-09T06:18:25;100786.34;;;16.27;100.00
11036;BME280;5571;48.110;-1.706;2022-09-09T06:20:59;100793.34;;;16.28;100.00
11036;BME280;5571;48.110;-1.706;2022-09-09T06:23:26;100785.41;;;16.28;100.00
11036;BME280;5571;48.110;-1.706;2022-09-09T06:26:07;100799.88;;;16.35;100.00
11036;BME280;5571;48.110;-1.706;2022-09-09T06:28:33;100798.81;;;16.37;100.00
11036;BME280;5571;48.110;-1.706;2022-09-09T06:31:00;100800.47;;;16.38;100.00
11036;BME280;5571;48.110;-1.706;2022-09-09T06:33:26;100804.81;;;16.39;100.00
11036;BME280;5571;48.110;-1.706;2022-09-09T06:35:53;100803.75;;;16.42;100.00
11036;BME280;5571;48.110;-1.706;2022-09-09T06:38:20;100806.91;;;16.47;100.00
11036;BME280;5571;48.110;-1.706;2022-09-09T06:40:52;100803.91;;;16.51;100.00
11036;BME280;5571;48.110;-1.706;2022-09-09T06:43:20;100810.50;;;16.57;100.00
11036;BME280;5571;48.110;-1.706;2022-09-09T06:45:59;100813.09;;;16.59;100.00
11036;BME280;5571;48.110;-1.706;2022-09-09T06:48:26;100817.31;;;16.61;100.00
11036;BME280;5571;48.110;-1.706;2022-09-09T06:51:13;100829.16;;;16.68;100.00
11036;BME280;5571;48.110;-1.706;2022-09-09T06:53:40;100821.41;;;16.65;100.00
11036;BME280;5571;48.110;-1.706;2022-09-09T06:58:40;100831.56;;;16.60;100.00
11036;BME280;5571;48.110;-1.706;2022-09-09T07:01:10;100830.09;;;16.67;100.00
11036;BME280;5571;48.110;-1.706;2022-09-09T07:03:38;100824.69;;;16.69;100.00
11036;BME280;5571;48.110;-1.706;2022-09-09T07:06:05;100834.69;;;16.76;100.00
11036;BME280;5571;48.110;-1.706;2022-09-09T07:08:31;100831.56;;;16.82;100.00
11036;BME280;5571;48.110;-1.706;2022-09-09T07:11:04;100838.19;;;16.88;100.00
11036;BME280;5571;48.110;-1.706;2022-09-09T07:13:30;100840.47;;;16.92;100.00
11036;BME280;5571;48.110;-1.706;2022-09-09T07:16:06;100833.38;;;17.04;100.00
11036;BME280;5571;48.110;-1.706;2022-09-09T07:18:31;100846.41;;;17.07;100.00
11036;BME280;5571;48.110;-1.706;2022-09-09T07:20:58;100833.63;;;17.12;100.00
11036;BME280;5571;48.110;-1.706;2022-09-09T07:23:24;100841.81;;;17.20;100.00
11036;BME280;5571;48.110;-1.706;2022-09-09T07:25:50;100838.78;;;17.25;100.00
11036;BME280;5571;48.110;-1.706;2022-09-09T07:28:17;100847.59;;;17.25;100.00
11036;BME280;5571;48.110;-1.706;2022-09-09T07:30:42;100851.22;;;17.24;100.00
11036;BME280;5571;48.110;-1.706;2022-09-09T07:33:08;100851.09;;;17.26;100.00
11036;BME280;5571;48.110;-1.706;2022-09-09T07:35:36;100865.94;;;17.28;100.00
11036;BME280;5571;48.110;-1.706;2022-09-09T07:38:02;100865.22;;;17.26;100.00
11036;BME280;5571;48.110;-1.706;2022-09-09T07:40:30;100864.97;;;17.29;100.00
11036;BME280;5571;48.110;-1.706;2022-09-09T07:42:55;100872.25;;;17.27;100.00
11036;BME280;5571;48.110;-1.706;2022-09-09T07:45:21;100872.47;;;17.24;100.00
11036;BME280;5571;48.110;-1.706;2022-09-09T07:47:46;100873.06;;;17.28;100.00
11036;BME280;5571;48.110;-1.706;2022-09-09T07:50:13;100879.47;;;17.25;100.00
11036;BME280;5571;48.110;-1.706;2022-09-09T07:52:38;100882.59;;;17.19;100.00
11036;BME280;5571;48.110;-1.706;2022-09-09T07:55:04;100879.47;;;17.25;100.00
11036;BME280;5571;48.110;-1.706;2022-09-09T07:57:30;100879.22;;;17.28;100.00
11036;BME280;5571;48.110;-1.706;2022-09-09T07:59:56;100879.94;;;17.41;100.00
11036;BME280;5571;48.110;-1.706;2022-09-09T08:02:22;100881.03;;;17.61;100.00
11036;BME280;5571;48.110;-1.706;2022-09-09T08:04:48;100883.91;;;17.80;100.00
11036;BME280;5571;48.110;-1.706;2022-09-09T08:07:13;100879.34;;;18.03;100.00
11036;BME280;5571;48.110;-1.706;2022-09-09T08:09:39;100894.94;;;18.08;100.00
11036;BME280;5571;48.110;-1.706;2022-09-09T08:12:04;100882.97;;;18.02;100.00
11036;BME280;5571;48.110;-1.706;2022-09-09T08:14:31;100894.69;;;18.00;100.00
11036;BME280;5571;48.110;-1.706;2022-09-09T08:16:57;100901.81;;;17.99;100.00
11036;BME280;5571;48.110;-1.706;2022-09-09T08:19:23;100900.19;;;17.87;100.00
11036;BME280;5571;48.110;-1.706;2022-09-09T08:21:48;100906.00;;;17.81;100.00
11036;BME280;5571;48.110;-1.706;2022-09-09T08:24:14;100904.16;;;17.81;100.00
11036;BME280;5571;48.110;-1.706;2022-09-09T08:26:42;100899.38;;;17.75;100.00
11036;BME280;5571;48.110;-1.706;2022-09-09T08:29:09;100910.22;;;17.83;100.00
11036;BME280;5571;48.110;-1.706;2022-09-09T08:31:37;100906.22;;;17.89;100.00
11036;BME280;5571;48.110;-1.706;2022-09-09T08:34:04;100910.44;;;17.92;100.00
11036;BME280;5571;48.110;-1.706;2022-09-09T08:36:33;100916.13;;;17.98;100.00
11036;BME280;5571;48.110;-1.706;2022-09-09T08:38:59;100910.03;;;18.07;100.00
11036;BME280;5571;48.110;-1.706;2022-09-09T08:47:24;100916.66;;;18.13;100.00
11036;BME280;5571;48.110;-1.706;2022-09-09T08:55:37;100927.56;;;18.42;100.00
11036;BME280;5571;48.110;-1.706;2022-09-09T08:58:14;100916.09;;;18.62;100.00
11036;BME280;5571;48.110;-1.706;2022-09-09T09:11:18;100932.75;;;19.26;100.00
11036;BME280;5571;48.110;-1.706;2022-09-09T09:18:59;100941.41;;;19.18;100.00
11036;BME280;5571;48.110;-1.706;2022-09-09T09:24:00;100949.22;;;19.10;100.00
11036;BME280;5571;48.110;-1.706;2022-09-09T09:26:33;100949.47;;;19.07;100.00
11036;BME280;5571;48.110;-1.706;2022-09-09T09:28:59;100957.91;;;19.12;100.00
11036;BME280;5571;48.110;-1.706;2022-09-09T09:31:26;100961.25;;;19.05;100.00
11036;BME280;5571;48.110;-1.706;2022-09-09T09:33:56;100961.25;;;19.05;100.00
11036;BME280;5571;48.110;-1.706;2022-09-09T09:39:10;100958.38;;;18.76;100.00
11036;BME280;5571;48.110;-1.706;2022-09-09T09:41:40;100954.88;;;18.75;100.00
11036;BME280;5571;48.110;-1.706;2022-09-09T09:44:26;100963.06;;;18.84;100.00
11036;BME280;5571;48.110;-1.706;2022-09-09T09:46:52;100962.22;;;19.04;100.00
11036;BME280;5571;48.110;-1.706;2022-09-09T09:49:19;100966.63;;;19.14;100.00
11036;BME280;5571;48.110;-1.706;2022-09-09T09:51:44;100960.81;;;19.30;100.00
11036;BME280;5571;48.110;-1.706;2022-09-09T09:56:39;100974.00;;;19.32;100.00
11036;BME280;5571;48.110;-1.706;2022-09-09T09:59:05;100962.00;;;19.37;100.00
11036;BME280;5571;48.110;-1.706;2022-09-09T10:01:32;100965.31;;;19.50;100.00
11036;BME280;5571;48.110;-1.706;2022-09-09T10:04:01;100969.22;;;19.56;100.00
11036;BME280;5571;48.110;-1.706;2022-09-09T10:08:57;100967.13;;;19.50;100.00
11036;BME280;5571;48.110;-1.706;2022-09-09T10:11:32;100972.19;;;19.53;100.00
11036;BME280;5571;48.110;-1.706;2022-09-09T10:14:16;100981.13;;;19.52;100.00
11036;BME280;5571;48.110;-1.706;2022-09-09T10:17:12;100978.69;;;19.70;100.00
11036;BME280;5571;48.110;-1.706;2022-09-09T10:19:49;100976.34;;;19.76;100.00
11036;BME280;5571;48.110;-1.706;2022-09-09T10:22:31;100977.41;;;20.04;100.00
11036;BME280;5571;48.110;-1.706;2022-09-09T10:33:08;100988.47;;;20.09;100.00
11036;BME280;5571;48.110;-1.706;2022-09-09T10:40:43;101001.59;;;19.72;100.00
11036;BME280;5571;48.110;-1.706;2022-09-09T10:46:50;101006.25;;;19.49;100.00
11036;BME280;5571;48.110;-1.706;2022-09-09T10:55:28;100980.34;;;20.10;100.00
11036;BME280;5571;48.110;-1.706;2022-09-09T10:57:59;100991.78;;;20.32;100.00
11036;BME280;5571;48.110;-1.706;2022-09-09T11:00:38;100988.44;;;20.30;100.00
11036;BME280;5571;48.110;-1.706;2022-09-09T11:03:06;100994.63;;;20.30;100.00
11036;BME280;5571;48.110;-1.706;2022-09-09T11:05:43;100997.50;;;20.18;100.00
11036;BME280;5571;48.110;-1.706;2022-09-09T11:10:55;100999.75;;;20.13;100.00
11036;BME280;5571;48.110;-1.706;2022-09-09T11:16:14;100999.03;;;20.20;100.00
11036;BME280;5571;48.110;-1.706;2022-09-09T11:18:41;101000.19;;;20.18;100.00
11036;BME280;5571;48.110;-1.706;2022-09-09T11:21:35;100994.97;;;20.16;100.00
11036;BME280;5571;48.110;-1.706;2022-09-09T11:24:03;100986.63;;;20.40;100.00
11036;BME280;5571;48.110;-1.706;2022-09-09T11:26:38;101000.25;;;20.56;96.93
11036;BME280;5571;48.110;-1.706;2022-09-09T11:34:40;100999.09;;;20.30;95.72
11036;BME280;5571;48.110;-1.706;2022-09-09T11:40:30;100996.22;;;20.12;98.91
11036;BME280;5571;48.110;-1.706;2022-09-09T11:43:08;100998.31;;;20.18;98.91
11036;BME280;5571;48.110;-1.706;2022-09-09T11:45:35;100996.66;;;20.17;97.04
11036;BME280;5571;48.110;-1.706;2022-09-09T11:48:02;100998.19;;;20.20;96.14
11036;BME280;5571;48.110;-1.706;2022-09-09T11:50:31;101008.16;;;20.08;96.98
11036;BME280;5571;48.110;-1.706;2022-09-09T11:55:39;101008.25;;;19.97;96.24
11036;BME280;5571;48.110;-1.706;2022-09-09T12:00:41;101008.66;;;19.92;97.64
11036;BME280;5571;48.110;-1.706;2022-09-09T12:03:45;101005.28;;;20.30;96.00
11036;BME280;5571;48.110;-1.706;2022-09-09T12:06:24;101003.19;;;20.63;95.73
11036;BME280;5571;48.110;-1.706;2022-09-09T12:08:56;101012.03;;;20.73;94.74
11036;BME280;5571;48.110;-1.706;2022-09-09T12:11:27;101002.91;;;20.46;95.48
11036;BME280;5571;48.110;-1.706;2022-09-09T12:13:55;101002.47;;;20.32;96.52
11036;BME280;5571;48.110;-1.706;2022-09-09T12:16:35;100998.00;;;20.51;99.18
11036;BME280;5571;48.110;-1.706;2022-09-09T12:19:21;100996.44;;;20.87;99.19
11036;BME280;5571;48.110;-1.706;2022-09-09T12:24:40;101001.19;;;21.22;96.93
11036;BME280;5571;48.110;-1.706;2022-09-09T12:27:18;101006.69;;;21.02;98.11
11036;BME280;5571;48.110;-1.706;2022-09-09T12:30:10;100999.19;;;21.34;97.90
11036;BME280;5571;48.110;-1.706;2022-09-09T12:32:36;100992.31;;;21.68;96.90
11036;BME280;5571;48.110;-1.706;2022-09-09T12:37:49;100989.00;;;21.84;93.61
11036;BME280;5571;48.110;-1.706;2022-09-09T12:40:25;100981.06;;;21.92;92.60
11036;BME280;5571;48.110;-1.706;2022-09-09T12:42:51;100987.00;;;21.96;92.70
11036;BME280;5571;48.110;-1.706;2022-09-09T12:45:18;100985.44;;;21.93;93.33
11036;BME280;5571;48.110;-1.706;2022-09-09T12:50:31;100990.66;;;21.95;92.74
11036;BME280;5571;48.110;-1.706;2022-09-09T12:52:59;100996.06;;;21.75;93.19
11036;BME280;5571;48.110;-1.706;2022-09-09T12:55:31;101006.44;;;21.88;94.95
11036;BME280;5571;48.110;-1.706;2022-09-09T12:57:59;101009.44;;;22.12;89.86
11036;BME280;5571;48.110;-1.706;2022-09-09T13:00:29;100990.41;;;22.51;89.06
11036;BME280;5571;48.110;-1.706;2022-09-09T13:02:57;100982.19;;;22.80;87.01
11036;BME280;5571;48.110;-1.706;2022-09-09T13:05:36;101004.06;;;22.93;83.18
11036;BME280;5571;48.110;-1.706;2022-09-09T13:08:03;101004.59;;;22.61;79.12
11036;BME280;5571;48.110;-1.706;2022-09-09T13:10:33;101005.34;;;22.53;78.88
11036;BME280;5571;48.110;-1.706;2022-09-09T13:13:01;100995.03;;;22.41;77.69
11036;BME280;5571;48.110;-1.706;2022-09-09T13:15:28;101010.06;;;22.24;78.68
11036;BME280;5571;48.110;-1.706;2022-09-09T13:17:59;101009.88;;;22.08;78.70
11036;BME280;5571;48.110;-1.706;2022-09-09T13:20:26;101001.09;;;22.15;80.07
11036;BME280;5571;48.110;-1.706;2022-09-09T13:22:54;101007.59;;;22.13;81.70
11036;BME280;5571;48.110;-1.706;2022-09-09T13:25:23;101011.59;;;22.09;81.83
11036;BME280;5571;48.110;-1.706;2022-09-09T13:27:58;101005.94;;;21.75;81.13
11036;BME280;5571;48.110;-1.706;2022-09-09T13:36:11;101031.16;;;20.87;100.00
11036;BME280;5571;48.110;-1.706;2022-09-09T13:38:52;101041.91;;;20.28;100.00
11036;BME280;5571;48.110;-1.706;2022-09-09T13:41:23;101049.00;;;19.99;100.00
11036;BME280;5571;48.110;-1.706;2022-09-09T13:43:49;101054.28;;;19.59;100.00
11036;BME280;5571;48.110;-1.706;2022-09-09T13:46:40;101056.34;;;19.35;100.00
11036;BME280;5571;48.110;-1.706;2022-09-09T13:54:09;101070.16;;;18.55;100.00
11036;BME280;5571;48.110;-1.706;2022-09-09T13:56:36;101069.19;;;18.45;100.00
11036;BME280;5571;48.110;-1.706;2022-09-09T13:59:05;101065.81;;;18.32;100.00
11036;BME280;5571;48.110;-1.706;2022-09-09T14:01:31;101077.94;;;18.25;100.00
11036;BME280;5571;48.110;-1.706;2022-09-09T14:03:56;101073.31;;;18.27;100.00
11036;BME280;5571;48.110;-1.706;2022-09-09T14:06:22;101063.63;;;18.26;100.00
11036;BME280;5571;48.110;-1.706;2022-09-09T14:08:51;101055.44;;;18.29;100.00
11036;BME280;5571;48.110;-1.706;2022-09-09T14:11:17;101054.44;;;18.41;100.00
11036;BME280;5571;48.110;-1.706;2022-09-09T14:13:43;101053.16;;;18.67;100.00
11036;BME280;5571;48.110;-1.706;2022-09-09T14:16:08;101048.47;;;18.92;100.00
11036;BME280;5571;48.110;-1.706;2022-09-09T14:18:34;101050.56;;;19.09;100.00
11036;BME280;5571;48.110;-1.706;2022-09-09T14:21:00;101057.88;;;19.28;100.00
11036;BME280;5571;48.110;-1.706;2022-09-09T14:23:25;101047.53;;;19.55;100.00
11036;BME280;5571;48.110;-1.706;2022-09-09T14:25:51;101048.78;;;19.81;100.00
11036;BME280;5571;48.110;-1.706;2022-09-09T14:28:17;101048.50;;;19.84;100.00
11036;BME280;5571;48.110;-1.706;2022-09-09T14:30:43;101061.41;;;19.79;100.00
11036;BME280;5571;48.110;-1.706;2022-09-09T14:33:12;101062.00;;;19.62;100.00
11036;BME280;5571;48.110;-1.706;2022-09-09T14:35:38;101064.75;;;19.51;100.00
11036;BME280;5571;48.110;-1.706;2022-09-09T14:38:04;101066.34;;;19.42;100.00
11036;BME280;5571;48.110;-1.706;2022-09-09T14:40:30;101086.06;;;19.30;100.00
11036;BME280;5571;48.110;-1.706;2022-09-09T14:42:56;101088.78;;;19.19;100.00
11036;BME280;5571;48.110;-1.706;2022-09-09T14:45:22;101090.72;;;18.96;100.00
11036;BME280;5571;48.110;-1.706;2022-09-09T14:47:50;101074.09;;;18.72;100.00
11036;BME280;5571;48.110;-1.706;2022-09-09T14:50:17;101062.13;;;18.66;100.00
11036;BME280;5571;48.110;-1.706;2022-09-09T14:52:42;101062.84;;;18.68;100.00
11036;BME280;5571;48.110;-1.706;2022-09-09T14:55:08;101058.59;;;18.66;100.00
11036;BME280;5571;48.110;-1.706;2022-09-09T14:57:33;101053.75;;;18.71;100.00
11036;BME280;5571;48.110;-1.706;2022-09-09T15:00:01;101058.84;;;18.74;100.00
11036;BME280;5571;48.110;-1.706;2022-09-09T15:02:27;101057.34;;;18.81;100.00